Time;durP1;ratioP1;P1;durP2;ratioP2;P2;SDS_P1;SDS_P2;PMS_P1;PMS_P2;Temp;Humidity;BMP_temperature;BMP_pressure;BME280_temperature;BME280_humidity;BME280_pressure;Samples;Min_cycle;Max_cycle;Signal;HPM_P1;HPM_P2
2023/02/19 00:00:02;;;;;;;;;5.33;5.33;;;;;13.52;59.41;102478.19;2027848;28;2740898;-74
2023/02/19 00:01:18;;;;;;;;;5.00;4.67;;;;;13.53;59.55;102487.00;2052782;28;2748224;-74
2023/02/19 00:02:32;;;;;;;;;5.17;4.50;;;;;13.53;59.59;102484.38;2030335;27;2746095;-74
2023/02/19 00:03:47;;;;;;;;;5.00;5.00;;;;;13.53;59.72;102490.50;2002334;27;2742993;-74
2023/02/19 00:05:01;;;;;;;;;2.33;1.83;;;;;13.53;59.78;102487.00;2054295;27;2735675;-74
2023/02/19 00:06:14;;;;;;;;;5.83;5.83;;;;;13.53;59.88;102495.78;2028239;28;2734652;-74
2023/02/19 00:07:27;;;;;;;;;6.00;6.00;;;;;13.53;60.20;102474.66;2045230;28;2741928;-74
2023/02/19 00:08:38;;;;;;;;;5.67;5.00;;;;;13.51;60.16;102473.81;2000846;28;2748264;-74
2023/02/19 00:09:49;;;;;;;;;4.33;3.67;;;;;13.49;60.31;102471.19;2023369;27;3455445;-74
2023/02/19 00:11:07;;;;;;;;;9.00;4.33;;;;;13.47;60.48;102465.09;2045328;28;2746116;-74
2023/02/19 00:12:20;;;;;;;;;6.33;6.33;;;;;13.47;60.56;102477.41;2022496;28;2729789;-74
2023/02/19 00:13:34;;;;;;;;;6.33;4.33;;;;;13.46;60.67;102478.28;1999937;28;2750283;-74
2023/02/19 00:14:47;;;;;;;;;7.50;5.83;;;;;13.47;60.30;102480.06;2052812;28;2730489;-74
2023/02/19 00:16:05;;;;;;;;;5.17;5.17;;;;;13.47;60.52;102487.97;2030012;27;2737770;-74
2023/02/19 00:17:15;;;;;;;;;5.00;4.00;;;;;13.47;60.61;102480.94;2003376;28;2747126;-74
2023/02/19 00:18:26;;;;;;;;;7.00;5.00;;;;;13.48;60.63;102487.09;2051249;28;2744015;-74
2023/02/19 00:19:40;;;;;;;;;5.67;5.67;;;;;13.49;60.67;102484.41;2049514;27;2740898;-74
2023/02/19 00:20:55;;;;;;;;;7.67;5.67;;;;;13.48;60.96;102490.56;2020901;28;2748186;-74
2023/02/19 00:22:08;;;;;;;;;6.00;5.50;;;;;13.46;60.90;102483.56;2046969;28;2743335;-74
2023/02/19 00:23:21;;;;;;;;;5.17;4.17;;;;;13.44;60.52;102478.34;2050092;28;2736732;-74
2023/02/19 00:24:34;;;;;;;;;8.33;6.50;;;;;13.43;61.08;102479.25;2053520;27;2744414;-74
2023/02/19 00:25:45;;;;;;;;;5.00;4.00;;;;;13.42;61.07;102481.91;2000708;28;2752380;-74
2023/02/19 00:26:56;;;;;;;;;4.00;4.00;;;;;13.39;60.80;102473.13;2042729;28;2749211;-74
2023/02/19 00:28:07;;;;;;;;;4.33;4.00;;;;;13.37;61.07;102474.94;2051499;27;2750272;-74
2023/02/19 00:29:20;;;;;;;;;7.33;6.33;;;;;13.37;60.83;102468.78;2004156;28;2745558;-74
2023/02/19 00:30:33;;;;;;;;;5.67;5.50;;;;;13.37;61.13;102468.78;2052667;28;2738830;-74
2023/02/19 00:31:47;;;;;;;;;4.00;4.00;;;;;13.37;61.33;102466.13;2029170;27;2752353;-74
2023/02/19 00:33:00;;;;;;;;;4.33;4.33;;;;;13.38;61.29;102465.25;2028580;27;2748177;-74
2023/02/19 00:34:14;;;;;;;;;6.33;5.83;;;;;13.38;61.32;102471.38;2030139;27;2739868;-74
2023/02/19 00:35:27;;;;;;;;;2.00;2.00;;;;;13.38;61.60;102471.38;2045389;28;2737777;-74
2023/02/19 00:36:39;;;;;;;;;7.67;7.00;;;;;13.39;61.32;102473.13;1994727;28;3451290;-74
2023/02/19 00:37:53;;;;;;;;;6.00;6.00;;;;;13.40;61.38;102468.72;2045095;28;2735743;-74
2023/02/19 00:39:04;;;;;;;;;4.00;4.00;;;;;13.39;61.53;102467.84;2023173;28;2750300;-74
2023/02/19 00:40:15;;;;;;;;;10.00;8.67;;;;;13.39;61.30;102466.97;2027087;27;2752371;-74
2023/02/19 00:41:27;;;;;;;;;7.33;7.33;;;;;13.40;61.67;102468.72;2052464;27;2730481;-74
2023/02/19 00:42:38;;;;;;;;;9.67;6.67;;;;;13.38;61.33;102463.44;2003988;28;2746184;-74
2023/02/19 00:43:52;;;;;;;;;5.67;5.00;;;;;13.39;61.82;102469.63;2033393;28;2741381;-74
2023/02/19 00:45:05;;;;;;;;;6.83;6.50;;;;;13.37;61.57;102461.72;2041449;28;2739857;-74
2023/02/19 00:46:28;;;;;;;;;9.33;8.17;;;;;13.36;61.59;102473.19;2022675;28;2729439;-74
2023/02/19 00:47:38;;;;;;;;;5.67;5.67;;;;;13.35;61.60;102468.81;2000396;28;2737767;-74
2023/02/19 00:48:51;;;;;;;;;8.67;7.00;;;;;13.34;61.71;102482.91;2052155;27;2733953;-74
2023/02/19 00:50:04;;;;;;;;;7.67;5.50;;;;;13.34;61.94;102469.69;2052582;27;2745057;-74
2023/02/19 00:51:19;;;;;;;;;4.50;3.00;;;;;13.34;61.58;102466.16;2028961;27;2739848;-74
2023/02/19 00:52:33;;;;;;;;;6.50;5.33;;;;;13.33;61.51;102464.44;2028748;27;2748190;-74
2023/02/19 00:53:46;;;;;;;;;5.67;5.67;;;;;13.31;61.75;102447.75;2052182;27;2734674;-74
2023/02/19 00:55:00;;;;;;;;;6.50;5.00;;;;;13.31;61.65;102447.75;2028881;28;2748184;-74
2023/02/19 00:56:13;;;;;;;;;8.00;5.67;;;;;13.32;62.22;102441.56;2029310;27;2735678;-74
2023/02/19 00:57:23;;;;;;;;;7.00;5.00;;;;;13.31;62.00;102448.59;2003481;27;2746133;-74
2023/02/19 00:58:34;;;;;;;;;10.00;7.67;;;;;13.32;62.14;102454.78;2042703;27;2754432;-74
2023/02/19 00:59:45;;;;;;;;;7.33;6.67;;;;;13.33;61.92;102446.84;2036015;27;3445064;-74
2023/02/19 01:00:56;;;;;;;;;6.33;5.00;;;;;13.34;61.96;102447.69;2040559;27;3458566;-74
2023/02/19 01:02:08;;;;;;;;;7.00;7.00;;;;;13.35;61.87;102441.53;2051284;27;2742976;-74
2023/02/19 01:03:21;;;;;;;;;7.17;6.83;;;;;13.36;62.14;102445.88;2049811;28;2730473;-74
2023/02/19 01:04:32;;;;;;;;;5.00;5.00;;;;;13.37;62.24;102447.66;2002992;28;2732573;-74
2023/02/19 01:05:43;;;;;;;;;6.33;6.33;;;;;13.37;62.00;102447.66;2050186;28;2730509;-74
2023/02/19 01:06:56;;;;;;;;;6.00;4.67;;;;;13.37;62.05;102442.34;2037901;28;2745073;-74
2023/02/19 01:08:09;;;;;;;;;9.33;8.17;;;;;13.36;62.20;102424.75;2044930;28;2744015;-74
2023/02/19 01:09:23;;;;;;;;;8.17;7.00;;;;;13.37;62.23;102426.50;2026964;28;2738818;-74
2023/02/19 01:10:36;;;;;;;;;7.83;6.17;;;;;13.37;62.14;102418.59;2022649;28;2744032;-74
2023/02/19 01:11:47;;;;;;;;;10.00;8.00;;;;;13.36;62.12;102420.34;2016625;28;1821134;-74
2023/02/19 01:13:00;;;;;;;;;9.00;7.00;;;;;13.36;62.02;102425.63;2052302;27;2741959;-74
2023/02/19 01:14:13;;;;;;;;;9.17;6.50;;;;;13.38;61.92;102426.47;2027496;28;2747175;-74
2023/02/19 01:15:24;;;;;;;;;11.33;7.33;;;;;13.37;62.26;102427.41;2002907;27;2758728;-74
2023/02/19 01:16:35;;;;;;;;;11.00;9.00;;;;;13.37;62.01;102431.78;2040759;27;3473183;-74
2023/02/19 01:17:46;;;;;;;;;5.33;5.33;;;;;13.36;62.31;102432.69;2036772;27;2740973;-74
2023/02/19 01:18:58;;;;;;;;;5.50;5.50;;;;;13.35;62.64;102436.25;2050930;28;2737803;-74
2023/02/19 01:20:09;;;;;;;;;8.67;8.67;;;;;13.33;62.29;102436.28;2040397;28;1829412;-74
2023/02/19 01:21:22;;;;;;;;;8.00;7.00;;;;;13.32;62.41;102444.22;2024263;27;1810670;-74
2023/02/19 01:22:35;;;;;;;;;7.00;6.50;;;;;13.30;62.45;102444.25;2035779;27;2735803;-74
2023/02/19 01:23:49;;;;;;;;;7.33;7.33;;;;;13.28;62.89;102443.41;2022693;28;2731517;-74
2023/02/19 01:25:03;;;;;;;;;8.83;7.33;;;;;13.25;62.83;102441.69;2026503;28;2742962;-74
2023/02/19 01:26:19;;;;;;;;;6.67;6.67;;;;;13.23;62.57;102448.75;2025739;28;2735710;-74
2023/02/19 01:27:32;;;;;;;;;6.50;5.00;;;;;13.22;62.97;102444.38;2044267;28;2752340;-74
2023/02/19 01:28:44;;;;;;;;;8.33;8.33;;;;;13.22;62.79;102439.09;2002883;27;2736825;-74
2023/02/19 01:29:58;;;;;;;;;7.50;7.00;;;;;13.22;63.00;102439.09;2057677;27;2737765;-74
2023/02/19 01:31:12;;;;;;;;;9.33;7.00;;;;;13.23;62.68;102434.69;1998662;28;2746176;-74
2023/02/19 01:32:25;;;;;;;;;7.00;5.17;;;;;13.22;62.95;102441.72;2052664;27;2745094;-74
2023/02/19 01:33:39;;;;;;;;;5.50;5.50;;;;;13.21;62.92;102434.69;2027992;27;2728398;-74
2023/02/19 01:34:49;;;;;;;;;8.00;5.67;;;;;13.20;63.39;102440.00;2025177;28;3457523;-74
2023/02/19 01:36:04;;;;;;;;;5.67;5.33;;;;;13.19;63.12;102433.84;2035115;27;2740906;-74
2023/02/19 01:37:17;;;;;;;;;9.00;7.50;;;;;13.19;62.94;102436.50;2044567;28;2738815;-74
2023/02/19 01:38:28;;;;;;;;;11.00;8.00;;;;;13.19;62.85;102448.81;2002494;28;3469001;-74
2023/02/19 01:39:38;;;;;;;;;8.33;7.33;;;;;13.19;63.10;102454.09;2040459;27;2737853;-74
2023/02/19 01:40:58;;;;;;;;;8.33;7.67;;;;;13.18;63.20;102455.88;2051155;27;2733611;-74
2023/02/19 01:42:14;;;;;;;;;7.67;7.33;;;;;13.17;63.14;102454.13;2004496;27;2740899;-74
2023/02/19 01:43:27;;;;;;;;;5.50;4.83;;;;;13.18;63.10;102453.25;2049944;28;2747172;-74
2023/02/19 01:44:44;;;;;;;;;7.00;7.00;;;;;13.19;63.02;102448.81;2051568;28;2741960;-74
2023/02/19 01:45:54;;;;;;;;;9.00;8.00;;;;;13.20;63.04;102453.22;2001284;28;2749236;-74
2023/02/19 01:47:06;;;;;;;;;12.75;9.75;;;;;13.19;63.03;102447.06;2056665;27;1837817;-74
2023/02/19 01:48:23;;;;;;;;;9.00;7.33;;;;;13.20;63.33;102459.38;2020574;27;3464815;-74
2023/02/19 01:49:47;;;;;;;;;7.33;7.00;;;;;13.20;63.30;102448.81;2045911;28;2741971;-74
2023/02/19 01:51:05;;;;;;;;;9.00;7.33;;;;;13.21;63.23;102461.09;2002344;28;2744027;-74
2023/02/19 01:52:26;;;;;;;;;9.33;7.33;;;;;13.21;63.23;102455.81;2025982;27;3457532;-74
2023/02/19 01:53:44;;;;;;;;;7.67;7.17;;;;;13.21;63.18;102444.41;2043868;28;2742987;-74
2023/02/19 01:55:00;;;;;;;;;6.83;6.67;;;;;13.21;63.24;102447.91;2050906;28;2737786;-74
2023/02/19 01:56:17;;;;;;;;;8.67;7.50;;;;;13.20;63.03;102443.53;2029052;27;2731519;-74
2023/02/19 01:57:36;;;;;;;;;7.33;5.83;;;;;13.20;63.17;102451.44;2028954;27;2737768;-74
2023/02/19 01:58:47;;;;;;;;;8.33;7.00;;;;;13.21;63.41;102447.91;2002476;27;3454391;-74
2023/02/19 02:00:03;;;;;;;;;10.50;8.50;;;;;13.21;63.23;102455.81;2033743;28;2759070;-74
2023/02/19 02:01:17;;;;;;;;;9.83;9.83;;;;;13.20;63.52;102446.16;2049379;28;1820079;-74
2023/02/19 02:02:27;;;;;;;;;11.50;11.00;;;;;13.20;63.31;102448.81;2000966;28;2786718;-74
2023/02/19 02:03:43;;;;;;;;;6.00;4.75;;;;;13.21;63.38;102447.03;2025664;28;2746051;-74
2023/02/19 02:04:56;;;;;;;;;17.00;17.00;;;;;13.22;63.38;102460.22;2000000;28;2828474;-74
2023/02/19 02:06:18;;;;;;;;;13.00;11.50;;;;;13.23;63.18;102461.09;1991011;28;2802708;-74
2023/02/19 02:10:28;;;;;;;;;12.00;11.00;;;;;13.22;63.18;102462.84;2001044;28;3526286;-74
2023/02/19 02:11:49;;;;;;;;;14.67;12.00;;;;;13.22;63.15;102460.22;2037090;28;2805472;-74
2023/02/19 02:12:59;;;;;;;;;9.00;8.00;;;;;13.23;63.52;102456.69;2017109;28;2742946;-74
2023/02/19 02:14:11;;;;;;;;;8.00;8.00;;;;;13.24;63.42;102458.41;2042196;28;2744000;-74
2023/02/19 02:15:27;;;;;;;;;7.00;7.00;;;;;13.24;63.42;102452.25;2024735;27;3444487;-74
2023/02/19 02:16:55;;;;;;;;;7.17;7.17;;;;;13.25;63.32;102446.97;2051511;28;2738810;-74
2023/02/19 02:18:34;;;;;;;;;8.67;7.67;;;;;13.26;63.25;102445.22;2026472;28;2744030;-74
2023/02/19 02:20:06;;;;;;;;;9.67;9.67;;;;;13.27;63.29;102450.44;2019821;28;3478416;-74
2023/02/19 02:21:55;;;;;;;;;30.33;28.33;;;;;13.28;63.30;102449.53;2025978;27;3598474;-75
2023/02/19 02:23:33;;;;;;;;;10.00;9.17;;;;;13.28;63.43;102454.81;2033029;27;1818040;-74
2023/02/19 02:25:02;;;;;;;;;10.00;10.00;;;;;13.28;63.60;102448.69;2014077;27;1838870;-74
2023/02/19 02:26:50;;;;;;;;;14.00;8.00;;;;;13.30;63.57;102453.94;2023612;28;3485686;-74
2023/02/19 02:28:11;;;;;;;;;9.75;9.50;;;;;13.30;63.33;102446.00;2038263;28;1839849;-74
2023/02/19 02:29:59;;;;;;;;;7.33;6.83;;;;;13.31;63.51;102453.03;2051298;28;2734640;-74
2023/02/19 02:31:15;;;;;;;;;9.25;8.75;;;;;13.32;63.44;102444.22;2015888;28;1829521;-74
2023/02/19 02:32:42;;;;;;;;;7.33;7.33;;;;;13.32;63.59;102444.22;2026441;28;2738822;-74
2023/02/19 02:34:00;;;;;;;;;14.00;14.00;;;;;13.33;63.29;102445.97;2023641;27;2810672;-74
2023/02/19 02:35:18;;;;;;;;;16.50;16.00;;;;;13.34;62.97;102450.31;2006472;27;2821110;-74
2023/02/19 02:36:42;;;;;;;;;10.00;9.50;;;;;13.34;63.37;102453.84;1995438;28;2774565;-74
2023/02/19 02:37:59;;;;;;;;;9.67;9.00;;;;;13.34;63.98;102447.69;1995549;28;3487747;-74
2023/02/19 02:39:14;;;;;;;;;9.50;9.00;;;;;13.34;63.37;102455.59;2026218;28;2758579;-74
2023/02/19 02:40:24;;;;;;;;;10.00;7.67;;;;;13.31;63.41;102448.59;2024180;27;3467976;-74
2023/02/19 02:41:42;;;;;;;;;10.67;8.67;;;;;13.31;63.33;102453.88;2038233;27;2754443;-74
2023/02/19 02:42:58;;;;;;;;;6.50;6.50;;;;;13.32;63.43;102460.94;2060920;27;2736752;-74
2023/02/19 02:44:08;;;;;;;;;8.67;8.00;;;;;13.32;63.38;102457.41;2006591;27;3460705;-74
2023/02/19 02:45:33;;;;;;;;;5.00;5.00;;;;;13.33;63.45;102467.09;2046185;27;2740900;-74
2023/02/19 02:46:45;;;;;;;;;7.67;7.67;;;;;13.34;63.60;102458.25;2004314;27;2734710;-74
2023/02/19 02:47:57;;;;;;;;;11.67;8.00;;;;;13.34;63.58;102455.59;2026341;28;2757656;-74
2023/02/19 02:49:16;;;;;;;;;8.00;7.00;;;;;13.33;63.86;102452.13;2026028;28;2746085;-74
2023/02/19 02:50:35;;;;;;;;;5.67;5.67;;;;;13.33;63.31;102452.13;2048785;28;2739872;-74
2023/02/19 02:51:51;;;;;;;;;7.33;7.17;;;;;13.30;63.53;102449.53;2029280;27;2734651;-74
2023/02/19 02:56:09;;;;;;;;;10.00;9.75;;;;;13.26;63.56;102451.34;2039661;28;1833620;-74
2023/02/19 02:57:23;;;;;;;;;6.33;6.17;;;;;13.25;63.75;102449.59;2053781;27;2734621;-74
2023/02/19 02:58:34;;;;;;;;;39.00;30.50;;;;;13.24;63.71;102447.84;2002743;27;2871120;-74
2023/02/19 02:59:47;;;;;;;;;10.00;7.00;;;;;13.25;63.72;102449.59;2010358;27;3480463;-74
2023/02/19 03:02:34;;;;;;;;;12.67;12.67;;;;;13.25;63.65;102446.09;2001719;28;3511703;-74
2023/02/19 03:03:51;;;;;;;;;16.75;16.75;;;;;13.24;63.50;102442.56;2037941;28;1837188;-74
2023/02/19 03:06:43;;;;;;;;;7.50;6.33;;;;;13.24;63.29;102442.56;2031121;28;2733614;-74
2023/02/19 03:07:59;;;;;;;;;10.00;9.00;;;;;13.25;63.49;102449.59;2001422;27;2761738;-74
2023/02/19 03:09:21;;;;;;;;;6.33;4.00;;;;;13.24;63.25;102458.41;2036757;27;2752340;-74
2023/02/19 03:10:40;;;;;;;;;5.17;3.50;;;;;13.23;63.21;102454.03;2027864;27;2746086;-74
2023/02/19 03:19:53;;;;;;;;;1.67;1.67;;;;;13.12;62.38;102458.59;2048482;28;2735702;-74
2023/02/19 03:21:08;;;;;;;;;2.00;2.00;;;;;13.11;62.60;102456.88;2029321;28;2753406;-74
2023/02/19 03:22:28;;;;;;;;;2.83;1.17;;;;;13.10;62.78;102455.13;2029942;28;2737760;-74
2023/02/19 03:26:52;;;;;;;;;1.00;1.00;;;;;13.08;62.89;102441.97;2049235;28;2725625;-74
2023/02/19 03:28:09;;;;;;;;;1.00;1.00;;;;;13.08;62.67;102449.88;2048281;28;2725346;-74
2023/02/19 03:29:27;;;;;;;;;1.00;1.00;;;;;13.09;62.35;102448.97;2055120;28;2725258;-74
2023/02/19 03:30:52;;;;;;;;;1.33;1.00;;;;;13.11;62.81;102448.97;2054362;28;2730816;-74
2023/02/19 03:32:28;;;;;;;;;3.00;1.50;;;;;13.13;62.72;102444.53;2052801;28;2732576;-74
2023/02/19 03:33:44;;;;;;;;;2.17;1.33;;;;;13.13;62.81;102450.69;2030077;28;2748177;-74
2023/02/19 03:35:17;;;;;;;;;2.17;2.00;;;;;13.13;62.83;102444.53;2029909;27;2746123;-74
2023/02/19 03:36:38;;;;;;;;;5.00;2.00;;;;;13.12;62.64;102448.06;2030006;27;2750242;-74
2023/02/19 03:37:56;;;;;;;;;2.00;2.00;;;;;13.09;62.47;102440.22;2030236;28;2730498;-74
2023/02/19 03:39:14;;;;;;;;;1.17;1.17;;;;;13.07;62.78;102440.22;2029336;27;2727344;-74
2023/02/19 03:40:33;;;;;;;;;1.50;1.50;;;;;13.04;62.47;102440.25;2053361;28;2733622;-74
2023/02/19 03:42:13;;;;;;;;;1.00;0.50;;;;;13.03;62.64;102444.69;2054468;28;2724235;-74
2023/02/19 03:43:51;;;;;;;;;3.00;2.00;;;;;13.02;62.73;102432.38;2030046;27;2749246;-74
2023/02/19 03:45:18;;;;;;;;;3.17;1.67;;;;;13.02;62.55;102437.66;2028424;28;2742965;-74
2023/02/19 03:46:40;;;;;;;;;3.33;2.00;;;;;13.02;62.96;102439.41;2025695;28;2744060;-74
2023/02/19 03:48:18;;;;;;;;;1.00;0.33;;;;;13.02;62.60;102442.94;2027060;27;2726803;-74
2023/02/19 03:49:52;;;;;;;;;0.83;0.83;;;;;13.03;62.77;102449.09;2048960;28;2731523;-74
2023/02/19 03:51:16;;;;;;;;;2.00;1.67;;;;;13.01;62.51;102441.16;2053355;27;2742969;-74
2023/02/19 03:52:48;;;;;;;;;1.00;1.00;;;;;12.98;62.45;102443.88;2030814;27;2725626;-74
2023/02/19 03:54:45;;;;;;;;;2.83;2.17;;;;;12.97;62.53;102446.53;2053096;28;2754418;-74
2023/02/19 03:56:26;;;;;;;;;0.83;0.50;;;;;12.98;62.71;102448.28;2030306;28;2729546;-74
2023/02/19 03:57:53;;;;;;;;;1.00;1.00;;;;;12.98;62.40;102441.25;2054251;28;2731504;-74
2023/02/19 03:59:19;;;;;;;;;2.67;1.67;;;;;12.99;62.41;102445.59;2046041;28;2746114;-74
2023/02/19 04:00:38;;;;;;;;;2.67;1.00;;;;;12.98;62.41;102443.88;2045587;28;2739877;-74
2023/02/19 04:02:21;;;;;;;;;2.33;0.83;;;;;12.99;62.35;102444.75;2053667;28;2728744;-74
2023/02/19 04:03:52;;;;;;;;;3.67;1.83;;;;;12.99;62.05;102453.53;2054045;28;2739828;-74
2023/02/19 04:05:13;;;;;;;;;1.00;1.00;;;;;12.96;62.09;102445.69;2029826;27;2727421;-74
2023/02/19 04:06:29;;;;;;;;;3.50;2.00;;;;;12.96;62.33;102448.31;2053409;28;2744023;-74
2023/02/19 04:07:46;;;;;;;;;4.67;1.17;;;;;12.96;62.24;102443.03;2029441;28;2731012;-74
2023/02/19 04:09:05;;;;;;;;;2.33;1.00;;;;;12.97;62.10;102447.41;2024851;28;2733614;-74
2023/02/19 04:10:20;;;;;;;;;1.00;1.00;;;;;12.98;62.15;102454.44;2035897;27;2727353;-74
2023/02/19 04:11:35;;;;;;;;;0.17;0.17;;;;;12.99;62.09;102453.53;2051258;28;2721571;-74
2023/02/19 04:12:55;;;;;;;;;2.83;1.00;;;;;12.99;61.82;102456.16;2046852;28;2730493;-74
2023/02/19 04:14:15;;;;;;;;;1.00;1.00;;;;;12.99;61.77;102456.16;2054841;28;2721132;-74
2023/02/19 04:15:32;;;;;;;;;2.17;1.00;;;;;13.00;62.16;102457.03;2030647;27;2730486;-74
2023/02/19 04:16:51;;;;;;;;;1.17;1.00;;;;;12.99;61.92;102458.81;2053998;27;2734647;-74
2023/02/19 04:18:14;;;;;;;;;1.17;1.00;;;;;13.00;62.12;102454.41;2053856;27;2729508;-74
2023/02/19 04:19:32;;;;;;;;;1.00;1.00;;;;;13.01;62.03;102461.44;2054558;28;2732560;-74
2023/02/19 04:20:47;;;;;;;;;2.00;1.00;;;;;13.02;61.75;102458.75;2053637;27;2737762;-74
2023/02/19 04:22:01;;;;;;;;;0.00;0.00;;;;;13.03;61.78;102468.44;2031139;27;2724256;-74
2023/02/19 04:23:19;;;;;;;;;1.00;0.67;;;;;13.04;61.99;102461.38;2050612;27;2727346;-74
2023/02/19 04:24:47;;;;;;;;;0.83;0.00;;;;;13.05;61.89;102458.72;2047639;28;2727329;-74
2023/02/19 04:26:03;;;;;;;;;1.67;0.67;;;;;13.05;61.82;102465.75;2054271;28;2729428;-74
2023/02/19 04:27:16;;;;;;;;;0.00;0.00;;;;;13.05;61.74;102466.66;2053673;28;2729456;-74
2023/02/19 04:28:30;;;;;;;;;1.67;0.83;;;;;13.04;61.66;102462.25;2027436;28;2726344;-74
2023/02/19 04:29:43;;;;;;;;;0.00;0.00;;;;;13.05;61.56;102463.13;2053966;28;2724221;-74
2023/02/19 04:30:56;;;;;;;;;0.00;0.00;;;;;13.04;61.55;102462.25;2054370;28;2725289;-74
2023/02/19 04:32:11;;;;;;;;;0.17;0.17;;;;;13.06;61.63;102464.88;2054043;27;2733615;-74
2023/02/19 04:33:24;;;;;;;;;3.33;0.67;;;;;13.08;62.02;102471.00;2031116;28;2726288;-74
2023/02/19 04:34:38;;;;;;;;;0.00;0.00;;;;;13.09;61.53;102469.25;2052730;28;2737772;-74
2023/02/19 04:35:51;;;;;;;;;1.50;0.33;;;;;13.11;61.55;102472.72;2029780;28;2731503;-74
2023/02/19 04:37:05;;;;;;;;;1.00;1.00;;;;;13.11;61.56;102478.84;2053824;28;2726298;-74
2023/02/19 04:38:18;;;;;;;;;0.50;0.50;;;;;13.09;61.48;102480.66;2054099;28;2725286;-74
2023/02/19 04:39:31;;;;;;;;;3.00;0.67;;;;;13.08;61.51;102481.56;2053742;28;2737756;-74
2023/02/19 04:40:45;;;;;;;;;0.50;0.00;;;;;13.07;61.36;102486.84;2054290;27;2724224;-74
2023/02/19 04:41:58;;;;;;;;;0.50;0.00;;;;;13.07;61.51;102486.84;2054507;27;2732050;-74
2023/02/19 04:43:12;;;;;;;;;1.17;0.67;;;;;13.05;60.94;102493.03;2053448;28;2722141;-74
2023/02/19 04:44:25;;;;;;;;;1.33;0.00;;;;;13.02;61.47;102487.78;2029251;28;2727364;-74
2023/02/19 04:45:38;;;;;;;;;2.17;0.00;;;;;13.01;61.47;102491.31;2053647;28;2724237;-74
2023/02/19 04:46:51;;;;;;;;;1.00;0.00;;;;;13.00;61.14;102488.72;2053136;28;2725277;-74
2023/02/19 04:48:05;;;;;;;;;2.50;0.33;;;;;12.99;61.24;102490.47;2054394;27;2739912;-74
2023/02/19 04:49:18;;;;;;;;;2.00;1.67;;;;;12.98;61.20;102490.50;2053566;27;2730553;-74
2023/02/19 04:50:31;;;;;;;;;1.00;0.00;;;;;12.95;60.83;102491.44;2029325;28;2729455;-74
2023/02/19 04:51:44;;;;;;;;;0.67;0.00;;;;;12.96;60.61;102492.31;2054232;28;2731984;-74
2023/02/19 04:52:58;;;;;;;;;0.17;0.00;;;;;12.96;61.01;102490.53;2030816;28;2725317;-74
2023/02/19 04:54:11;;;;;;;;;0.67;0.00;;;;;12.96;60.38;102497.59;2054381;27;2727349;-74
2023/02/19 04:55:24;;;;;;;;;0.00;0.00;;;;;12.94;60.50;102494.94;2054059;27;2725294;-74
2023/02/19 04:56:38;;;;;;;;;0.17;0.17;;;;;12.95;60.76;102494.06;2054436;27;2724247;-74
2023/02/19 04:57:52;;;;;;;;;0.17;0.17;;;;;12.93;60.54;102491.47;2053863;27;2725265;-74
2023/02/19 04:59:05;;;;;;;;;0.67;0.00;;;;;12.92;60.35;102489.69;2029746;27;2723179;-74
2023/02/19 05:00:18;;;;;;;;;0.00;0.00;;;;;12.92;60.74;102492.34;2023458;28;2726312;-74
2023/02/19 05:01:31;;;;;;;;;0.33;0.00;;;;;12.93;60.40;102494.09;2041915;28;2726318;-74
2023/02/19 05:02:44;;;;;;;;;0.33;0.00;;;;;12.94;59.80;102505.50;2053449;28;2728737;-74
2023/02/19 05:03:58;;;;;;;;;1.00;1.00;;;;;12.94;60.21;102506.38;2054028;27;2733606;-74
2023/02/19 05:05:11;;;;;;;;;0.00;0.00;;;;;12.96;60.17;102511.66;2024933;27;2737804;-74
2023/02/19 05:06:24;;;;;;;;;0.00;0.00;;;;;12.96;59.90;102503.75;2023162;28;2725266;-74
2023/02/19 05:07:37;;;;;;;;;0.00;0.00;;;;;12.96;59.92;102511.66;2045961;28;2729472;-74
2023/02/19 05:08:50;;;;;;;;;0.00;0.00;;;;;12.94;60.08;102514.31;2051800;28;2734663;-74
2023/02/19 05:10:04;;;;;;;;;0.67;0.67;;;;;12.96;60.15;102516.06;2029055;28;2739170;-74
2023/02/19 05:11:17;;;;;;;;;0.33;0.00;;;;;12.97;60.31;102516.03;2053655;28;2729440;-74
2023/02/19 05:12:30;;;;;;;;;0.00;0.00;;;;;12.98;60.07;102516.91;2052369;27;2723275;-74
2023/02/19 05:13:43;;;;;;;;;0.00;0.00;;;;;13.00;60.17;102517.75;2047950;28;2725266;-74
2023/02/19 05:14:57;;;;;;;;;0.00;0.00;;;;;12.99;60.26;102516.03;2054261;28;2721135;-74
2023/02/19 05:16:12;;;;;;;;;0.00;0.00;;;;;13.00;60.04;102518.63;2053694;28;2724249;-74
2023/02/19 05:17:26;;;;;;;;;1.00;1.00;;;;;13.00;60.06;102512.47;2038043;27;2726318;-74
2023/02/19 05:18:40;;;;;;;;;1.00;0.00;;;;;13.01;60.21;102519.50;2057552;27;2731534;-74
2023/02/19 05:19:53;;;;;;;;;0.00;0.00;;;;;13.01;59.99;102520.34;2023156;28;2721099;-74
2023/02/19 05:21:06;;;;;;;;;0.00;0.00;;;;;12.99;59.79;102527.44;2053901;27;2725250;-74
2023/02/19 05:22:19;;;;;;;;;0.50;0.50;;;;;13.00;59.91;102528.31;2054209;27;2728411;-74
2023/02/19 05:23:33;;;;;;;;;0.67;0.67;;;;;12.96;60.02;102530.13;2053955;27;2721167;-74
2023/02/19 05:24:46;;;;;;;;;0.17;0.00;;;;;12.96;59.58;102521.34;2045687;28;2731523;-74
2023/02/19 05:26:04;;;;;;;;;0.00;0.00;;;;;12.95;60.15;102531.00;2051813;28;2725258;-74
2023/02/19 05:27:17;;;;;;;;;0.00;0.00;;;;;12.95;59.93;102528.38;2052779;27;2725350;-74
2023/02/19 05:28:31;;;;;;;;;0.33;0.00;;;;;12.94;60.20;102526.63;2053382;28;2726330;-74
2023/02/19 05:29:44;;;;;;;;;1.00;0.00;;;;;12.95;60.23;102525.75;2052598;28;2729444;-74
2023/02/19 05:30:57;;;;;;;;;0.00;0.00;;;;;12.96;60.22;102516.06;2053785;27;2731542;-74
2023/02/19 05:32:10;;;;;;;;;0.00;0.00;;;;;12.95;60.13;102520.47;2030450;27;2724247;-74
2023/02/19 05:33:24;;;;;;;;;0.33;0.33;;;;;12.96;59.97;102530.13;2053821;27;2731536;-74
2023/02/19 05:34:38;;;;;;;;;0.00;0.00;;;;;12.96;60.05;102532.78;2037274;27;2725344;-74
2023/02/19 05:35:54;;;;;;;;;0.50;0.50;;;;;12.93;60.29;102533.69;2051543;28;2725309;-74
2023/02/19 05:37:07;;;;;;;;;0.00;0.00;;;;;12.93;60.33;102533.69;2022476;28;2726319;-74
2023/02/19 05:38:21;;;;;;;;;0.00;0.00;;;;;12.93;60.17;102532.81;2051439;28;2724240;-74
2023/02/19 05:39:34;;;;;;;;;0.50;0.00;;;;;12.95;60.33;102536.28;2046166;28;2733606;-74
2023/02/19 05:40:48;;;;;;;;;1.67;1.00;;;;;12.95;60.28;102541.56;2052003;28;2733594;-74
2023/02/19 05:42:01;;;;;;;;;1.00;0.00;;;;;12.96;60.40;102538.06;2030243;27;2733623;-74
2023/02/19 05:43:14;;;;;;;;;1.00;1.00;;;;;12.95;60.62;102541.56;2053336;27;2732545;-74
2023/02/19 05:44:27;;;;;;;;;2.00;0.00;;;;;12.94;60.56;102543.34;2029054;27;2729433;-74
2023/02/19 05:45:41;;;;;;;;;1.33;0.00;;;;;12.96;60.50;102550.38;2046785;28;2729452;-74
2023/02/19 05:46:54;;;;;;;;;1.00;1.00;;;;;12.96;60.75;102542.44;2052269;27;2740894;-74
2023/02/19 05:48:07;;;;;;;;;0.00;0.00;;;;;12.97;60.57;102554.75;2026160;28;2726323;-74
2023/02/19 05:49:20;;;;;;;;;0.00;0.00;;;;;12.97;60.49;102552.97;2046139;28;2725282;-74
2023/02/19 05:50:35;;;;;;;;;1.50;0.67;;;;;12.99;60.47;102559.09;2053089;28;2733602;-74
2023/02/19 05:51:51;;;;;;;;;1.00;0.33;;;;;12.99;60.15;102550.34;2030342;27;2729448;-74
2023/02/19 05:53:05;;;;;;;;;0.17;0.17;;;;;12.98;60.39;102551.22;2052720;28;2733602;-74
2023/02/19 05:54:18;;;;;;;;;0.17;0.00;;;;;12.98;60.35;102559.13;2021629;28;2726331;-74
2023/02/19 05:55:35;;;;;;;;;2.00;0.00;;;;;12.99;60.52;102558.25;2037832;28;2731547;-74
2023/02/19 05:56:48;;;;;;;;;0.17;0.17;;;;;12.97;60.40;102550.34;2039236;28;2730548;-74
2023/02/19 05:58:02;;;;;;;;;0.33;0.00;;;;;12.99;60.39;102558.25;2048437;28;2727377;-74
2023/02/19 05:59:18;;;;;;;;;0.17;0.00;;;;;13.00;60.28;102557.34;2052560;28;2723179;-74
2023/02/19 06:00:32;;;;;;;;;0.00;0.00;;;;;13.01;60.34;102557.31;2054072;28;2731524;-74
2023/02/19 06:01:47;;;;;;;;;0.00;0.00;;;;;13.01;60.13;102557.31;2030312;27;2730478;-74
2023/02/19 06:03:00;;;;;;;;;2.00;1.00;;;;;13.02;60.25;102551.16;2053934;27;2731523;-74
2023/02/19 06:04:14;;;;;;;;;0.00;0.00;;;;;13.02;60.34;102558.19;2053509;27;2733595;-74
2023/02/19 06:05:27;;;;;;;;;0.67;0.00;;;;;13.04;59.96;102559.91;2053578;27;2725247;-74